• Join FlightAware (Why Join?)
  • Login
  • US Flag 
06:07PM EST


 

Airport Tracker/Info


-or-


 

Live Flight TrackerFlight Track Log ✈ SWA2860 ✈ 27-Jun-2013 ✈ KDEN - KBWI

Flight Track Log - Related Links

Times and Time Zones

All times are in EDT time to prevent confusion due to time zone crossing. See the SWA2860 flight status page for this flight to view local times or setup timezone preferences in your user account.

Time Position Orientation Groundspeed Altitude Reporting Facility
EDT Latitude Longitude Course Direction KTS MPH feet Rate Location/Type
08:09AM 39.8833 -104.5500 90° East 205 236 7,000  Level Denver TRACON
08:10AM 39.8833 -104.4500 90° East 273 314 8,200 1,560 Climbing Denver TRACON
08:11AM 39.8739 -104.3864 101° East 288 331 9,700 2,040 Climbing Denver Center
08:12AM 39.8733 -104.2758 90° East 304 350 11,800 1,680 Climbing Denver Center
08:13AM 39.8728 -104.1547 90° East 337 388 13,200 1,980 Climbing Denver Center
08:14AM 39.8667 -103.8654 90° East  Level FlightAware Approximate
08:14AM 39.8717 -104.0086 91° East 370 426 15,900  Level Denver Center
08:15AM 39.8719 -103.8642 90° East 398 458 18,000 2,040 Climbing Denver Center
08:16AM 39.8839 -103.7256 84° East 405 466 20,100 1,980 Climbing Denver Center
08:17AM 39.8947 -103.5856 84° East 404 465 22,100 1,980 Climbing Denver Center
08:18AM 39.9058 -103.4297 85° East 426 490 24,200 1,920 Climbing Denver Center
08:19AM 39.9189 -103.2717 84° East 437 503 26,000 1,680 Climbing Denver Center
08:20AM 39.9292 -103.1069 85° East 453 521 27,700 1,440 Climbing Denver Center
08:21AM 39.9406 -102.9381 85° East 467 537 29,000 1,260 Climbing Denver Center
08:22AM 39.9531 -102.7656 85° East 480 552 30,300 1,620 Climbing Denver Center
08:23AM 39.9661 -102.5556 85° East 490 564 32,400 1,740 Climbing Denver Center
08:24AM 39.9778 -102.3900 85° East 482 555 33,900 1,380 Climbing Denver Center
08:25AM 39.9878 -102.2244 85° East 481 554 35,300 1,380 Climbing Denver Center
08:26AM 39.9992 -102.0325 86° East 477 549 36,800 780 Climbing Denver Center
08:27AM 40.0083 -101.8681 86° East 474 545 37,000 60 Climbing Denver Center
08:28AM 40.0178 -101.7044 86° East 473 544 37,000  Level Denver Center
08:29AM 40.0292 -101.5142 85° East 472 543 37,000  Level Denver Center
08:30AM 40.0378 -101.3508 86° East 473 544 37,000  Level Denver Center
08:31AM 40.0456 -101.1867 86° East 475 547 37,000  Level Denver Center
08:32AM 40.0556 -100.9975 86° East 472 543 37,000  Level Denver Center
08:33AM 40.0636 -100.8339 86° East 474 545 37,000  Level Denver Center
08:34AM 40.0733 -100.6439 86° East 471 542 37,000  Level Denver Center
08:35AM 40.0800 -100.4825 87° East 468 539 37,000  Level Denver Center
08:36AM 40.0867 -100.3467 86° East 470 541 37,000  Level Denver Center
08:37AM 40.0964 -100.1319 87° East 467 537 37,000  Level Denver Center
08:38AM 40.1028 -99.9708 87° East 465 535 37,000  Level Denver Center
08:39AM 40.1103 -99.7964 87° East 466 536 37,000  Level Denver Center
08:40AM 40.1169 -99.6272 87° East 469 540 37,000  Level Denver Center
08:41AM 40.1242 -99.4561 87° East 473 544 37,000 540 Level Denver Center
08:42AM 40.1300 -99.2842 87° East 475 547 38,100 960 Climbing Denver Center
08:43AM 40.1361 -99.1139 87° East 470 541 39,000 420 Climbing Denver Center
08:44AM 40.1403 -98.9789 88° East 471 542 39,000  Level Minneapolis Center
08:45AM 40.1456 -98.7753 88° East 469 540 39,000  Level Minneapolis Center
08:46AM 40.1156 -98.5736 101° East 472 543 39,000  Level Minneapolis Center
08:47AM 40.0781 -98.4089 107° East 475 547 39,000  Level Minneapolis Center
08:48AM 40.0278 -98.2497 112° Southeast 476 548 39,000  Level Minneapolis Center
08:49AM 39.9658 -98.0956 118° Southeast 483 556 39,000  Level Minneapolis Center
08:50AM 39.8800 -97.9647 131° Southeast 478 550 39,000  Level Minneapolis Center
08:51AM 39.7911 -97.8336 131° Southeast 481 554 39,000  Level Minneapolis Center
08:52AM 39.7050 -97.7008 130° Southeast 481 554 39,000  Level Minneapolis Center
08:53AM 39.6189 -97.5669 130° Southeast 482 555 39,000  Level Kansas City Center
08:54AM 39.5344 -97.4336 129° Southeast 481 554 39,000  Level Kansas City Center
08:55AM 39.4878 -97.2611 109° East 481 554 39,000  Level Kansas City Center
08:56AM 39.4592 -97.0761 101° East 474 545 39,000  Level Kansas City Center
08:57AM 39.4772 -96.9156 82° East 471 542 39,000  Level Kansas City Center
08:58AM 39.5008 -96.7311 81° East 467 537 39,000  Level Kansas City Center
08:59AM 39.5178 -96.5711 82° East 468 539 39,000  Level Kansas City Center
09:00AM 39.5394 -96.3869 81° East 463 533 39,000  Level Kansas City Center
09:01AM 39.5564 -96.2297 82° East 461 531 39,000  Level Kansas City Center
09:02AM 39.5747 -96.0708 81° East 463 533 39,000  Level Kansas City Center
09:03AM 39.5958 -95.8853 82° East 465 535 39,000  Level Kansas City Center
09:05AM 39.6133 -95.7256 82° East 466 536 39,000  Level Kansas City Center
09:06AM 39.6339 -95.5389 82° East 466 536 39,000  Level Kansas City Center
09:07AM 39.6503 -95.3789 82° East 464 534 39,000  Level Kansas City Center
09:08AM 39.6672 -95.2189 82° East 464 534 39,000  Level Kansas City Center
09:09AM 39.6864 -95.0311 82° East 466 536 39,000  Level Kansas City Center
09:10AM 39.7028 -94.8678 83° East 472 543 39,000  Level Kansas City Center
09:11AM 39.7225 -94.6786 82° East 473 544 39,000  Level Kansas City Center
09:12AM 39.7392 -94.5144 82° East 477 549 39,000  Level Kansas City Center
09:13AM 39.7575 -94.3239 83° East 474 545 39,000  Level Kansas City Center
09:14AM 39.7722 -94.1619 83° East 470 541 39,000  Level Kansas City Center
09:16AM 39.8050 -93.8106 83° East 472 543 39,000  Level Kansas City Center
09:17AM 39.8208 -93.6381 83° East 471 542 39,000  Level Kansas City Center
09:18AM 39.8361 -93.4722 83° East 468 539 39,000  Level Kansas City Center
09:19AM 39.8503 -93.3069 84° East 467 537 39,000  Level Kansas City Center
09:20AM 39.8650 -93.1419 83° East 466 536 39,000  Level Kansas City Center
09:21AM 39.8819 -92.9447 84° East 464 534 39,000  Level Kansas City Center
09:22AM 39.8947 -92.7789 84° East 467 537 39,000  Level Kansas City Center
09:23AM 39.9092 -92.6117 84° East 472 543 39,000  Level Kansas City Center
09:24AM 39.9228 -92.4453 84° East 472 543 39,000  Level Kansas City Center
09:25AM 39.9375 -92.2450 84° East 471 542 39,000  Level Kansas City Center
09:26AM 39.9517 -92.0769 84° East 473 544 39,000  Level Kansas City Center
09:27AM 39.9633 -91.9086 85° East 473 544 39,000  Level Kansas City Center
09:28AM 39.9767 -91.7403 84° East 474 545 39,000  Level Kansas City Center
09:29AM 39.9914 -91.5378 85° East 472 543 39,000  Level Kansas City Center
09:30AM 40.0031 -91.3694 85° East 472 543 39,000  Level Kansas City Center
09:31AM 40.0158 -91.1994 84° East 474 545 39,000  Level Kansas City Center
09:32AM 40.0250 -91.0286 86° East 476 548 39,000  Level Kansas City Center
09:33AM 40.0386 -90.8400 85° East 481 554 39,000  Level Kansas City Center
09:34AM 40.0497 -90.6656 85° East 483 556 39,000  Level Kansas City Center
09:36AM 40.0631 -90.4928 84° East 482 555 39,000  Level Kansas City Center
09:37AM 40.0731 -90.3183 86° East 484 557 39,000  Level Kansas City Center
09:38AM 40.0858 -90.1086 85° East 486 559 39,000  Level Kansas City Center
09:39AM 40.0944 -89.9336 86° East 487 560 39,000  Level Kansas City Center
09:40AM 40.1056 -89.7597 85° East 485 558 39,000  Level Kansas City Center
09:41AM 40.1150 -89.5878 86° East 482 555 39,000  Level Kansas City Center
09:42AM 40.1239 -89.4139 86° East 481 554 39,000  Level Kansas City Center
09:43AM 40.1350 -89.2067 86° East 481 554 39,000  Level Kansas City Center
09:44AM 40.1439 -89.0325 86° East 481 554 39,000  Level Kansas City Center
09:45AM 40.1531 -88.8594 86° East 481 554 39,000  Level Kansas City Center
09:46AM 40.1617 -88.6847 86° East 483 556 39,000  Level Kansas City Center
09:47AM 40.1689 -88.5100 87° East 482 555 39,000  Level Kansas City Center
09:48AM 40.1797 -88.3325 85° East 488 562 39,000  Level Kansas City Center
09:49AM 40.1881 -88.1225 87° East 485 558 39,000  Level Kansas City Center
09:50AM 40.1939 -87.9700 87° East 488 562 39,000  Level Indianapolis Center
09:51AM 40.1992 -87.7942 88° East 486 559 39,000  Level Indianapolis Center
09:52AM 40.2069 -87.6167 87° East 487 560 39,000  Level Indianapolis Center
09:53AM 40.2139 -87.4403 87° East 487 560 39,000  Level Indianapolis Center
09:54AM 40.2214 -87.2278 87° East 487 560 39,000  Level Indianapolis Center
09:55AM 40.2267 -87.0531 88° East 484 557 39,000  Level Indianapolis Center
09:56AM 40.2328 -86.8750 87° East 486 559 39,000  Level Indianapolis Center
09:57AM 40.2394 -86.6992 87° East 483 556 39,000  Level Indianapolis Center
09:58AM 40.2419 -86.5225 89° East 484 557 39,000  Level Indianapolis Center
09:59AM 40.2403 -86.3450 91° East 485 558 39,000  Level Indianapolis Center
10:00AM 40.2358 -86.1681 92° East 484 557 39,000  Level Indianapolis Center
10:01AM 40.2322 -85.9561 91° East 484 557 39,000  Level Indianapolis Center
10:02AM 40.2283 -85.7808 92° East 482 555 39,000  Level Indianapolis Center
10:03AM 40.2244 -85.6061 92° East 479 551 39,000  Level Indianapolis Center
10:04AM 40.2206 -85.4331 92° East 476 548 39,000  Level Indianapolis Center
10:05AM 40.2158 -85.2594 92° East 478 550 39,000  Level Indianapolis Center
10:06AM 40.2119 -85.0858 92° East 478 550 39,000  Level Indianapolis Center
10:07AM 40.2061 -84.8917 92° East 476 548 39,000  Level Indianapolis Center
10:09AM 40.2003 -84.7164 92° East 477 549 39,000  Level Indianapolis Center
10:10AM 40.1961 -84.5417 92° East 477 549 39,000  Level Indianapolis Center
10:11AM 40.1908 -84.3644 92° East 481 554 39,000  Level Indianapolis Center
10:12AM 40.1839 -84.1894 93° East 479 551 39,000  Level Indianapolis Center
10:13AM 40.1769 -83.9814 92° East 483 556 39,000  Level Indianapolis Center
10:14AM 40.1697 -83.8067 93° East 479 551 39,000  Level Indianapolis Center
10:15AM 40.1631 -83.6361 93° East 466 536 39,000  Level Indianapolis Center
10:16AM 40.1567 -83.4636 93° East 467 537 39,000  Level Indianapolis Center
10:17AM 40.1497 -83.2900 93° East 468 539 39,000  Level Indianapolis Center
10:18AM 40.1411 -83.1133 94° East 478 550 39,000  Level Indianapolis Center
10:19AM 40.1333 -82.9375 93° East 479 551 39,000  Level Indianapolis Center
10:20AM 40.1247 -82.7611 94° East 482 555 39,000  Level Indianapolis Center
10:21AM 40.1167 -82.5850 93° East 479 551 39,000  Level Indianapolis Center
10:22AM 40.1083 -82.4114 94° East 476 548 39,000  Level Indianapolis Center
10:23AM 40.0975 -82.2086 94° East 476 548 39,000  Level Indianapolis Center
10:24AM 40.0886 -82.0356 94° East 474 545 39,000  Level Indianapolis Center
10:25AM 40.0786 -81.8639 94° East 472 543 39,000  Level Indianapolis Center
10:26AM 40.0694 -81.7056 94° East 470 541 39,000  Level Indianapolis Center
10:27AM 40.0583 -81.5058 94° East 471 542 39,000  Level Indianapolis Center
10:28AM 40.0483 -81.3342 94° East 470 541 39,000  Level Indianapolis Center
10:29AM 40.0375 -81.1628 95° East 472 543 39,000  Level Indianapolis Center
10:30AM 40.0275 -80.9908 94° East 473 544 39,000  Level Indianapolis Center
10:31AM 40.0211 -80.8378 93° East 467 537 39,000  Level Cleveland Center
10:32AM 39.9919 -80.6753 103° East 462 532 39,000  Level Cleveland Center
10:33AM 39.9608 -80.5261 105° East 462 532 39,000  Level Cleveland Center
10:34AM 39.9294 -80.3639 104° East 467 537 39,000  Level Cleveland Center
10:35AM 39.8956 -80.1989 105° East 467 537 39,000 -240 Level Cleveland Center
10:36AM 39.8617 -80.0367 105° East 467 537 38,600 -1,980 Descending Cleveland Center
10:39AM 39.7736 -79.6169 105° East 464 534 32,200 -2,460 Descending Washington Center
10:40AM 39.7394 -79.4531 105° East 464 534 30,100 -2,220 Descending Washington Center
10:41AM 39.7069 -79.2950 105° East 464 534 27,800 -2,520 Descending Washington Center
10:42AM 39.6703 -79.1286 106° East 464 534 25,100 -2,160 Descending Washington Center
10:43AM 39.6392 -78.9708 104° East 459 528 23,600 -1,980 Descending Washington Center
10:44AM 39.6017 -78.8208 108° East 470 541 21,200 -1,680 Descending Washington Center
10:45AM 39.5683 -78.6631 105° East 465 535 20,200 -1,020 Descending Washington Center
10:46AM 39.5344 -78.5111 106° East 450 518 19,200 -1,080 Descending Washington Center
10:47AM 39.5006 -78.3617 106° East 439 505 18,100 -1,440 Descending Washington Center
10:48AM 39.4683 -78.2153 106° East 434 499 16,400 -1,560 Descending Washington Center
10:49AM 39.4486 -78.0694 100° East 422 486 15,000 -660 Descending Washington Center
10:50AM 39.4475 -77.9217 91° East 410 472 15,100 -480 Climbing Washington Center
10:51AM 39.4481 -77.7764 90° East 404 465 14,100 -1,200 Descending Washington Center
10:52AM 39.4464 -77.6314 91° East 404 465 12,700 -1,500 Descending Washington Center
10:53AM 39.4444 -77.4917 91° East 399 459 11,100 -1,080 Descending Washington Center
10:53AM 39.4500 -77.3667 87° East 376 433 10,900 -120 Descending Potomac TRACON
10:54AM 39.4667 -77.2500 79° East 320 368 10,900 -600 Level Potomac TRACON
10:55AM 39.4667 -77.1500 90° East 316 364 9,800 -1,320 Descending Potomac TRACON
10:56AM 39.4833 -77.0333 79° East 316 364 8,300 -1,620 Descending Potomac TRACON
10:57AM 39.4500 -76.9500 117° Southeast 285 328 6,600 -1,800 Descending Potomac TRACON
10:58AM 39.3833 -76.9333 169° South 263 303 4,900 -1,860 Descending Potomac TRACON
10:59AM 39.3167 -76.9167 169° South 258 297 3,100 -1,200 Descending Potomac TRACON
11:00AM 39.2500 -76.9000 169° South 233 268 2,500 -360 Descending Potomac TRACON
11:01AM 39.2000 -76.8667 153° Southeast 228 262 2,400 -360 Descending Potomac TRACON
11:02AM 39.1833 -76.8000 108° East 200 230 1,900 -660 Descending Potomac TRACON
11:03AM 39.1833 -76.7333 90° East 160 184 1,200 -720 Descending Potomac TRACON
11:05AM 39.1667 -76.6667 142° Southeast  Level FlightAware Approximate
11:12AM 39.1754 -76.6683 142° Southeast  Level Estimated
11:13AM 39.1754 -76.6683 142° Southeast  Level Estimated
11:14AM 39.1754 -76.6683 142° Southeast  Level Estimated
11:15AM 39.1754 -76.6683 142° Southeast  Level Estimated
11:16AM 39.1754 -76.6683 142° Southeast  Level Estimated
11:17AM 39.1754 -76.6683 142° Southeast  Level Estimated